sensor_id;sensor_type;location;lat;lon;timestamp;P1;durP1;ratioP1;P2;durP2;ratioP2
69087;SDS011;56190;43.562;5.036;2023-03-29T00:00:34;8.63;;;2.88;;
69087;SDS011;56190;43.562;5.036;2023-03-29T00:03:00;8.85;;;3.63;;
69087;SDS011;56190;43.562;5.036;2023-03-29T00:05:26;7.47;;;3.40;;
69087;SDS011;56190;43.562;5.036;2023-03-29T00:07:53;7.10;;;2.95;;
69087;SDS011;56190;43.562;5.036;2023-03-29T00:10:18;7.18;;;3.15;;
69087;SDS011;56190;43.562;5.036;2023-03-29T00:12:45;5.70;;;2.70;;
69087;SDS011;56190;43.562;5.036;2023-03-29T00:15:10;9.52;;;3.50;;
69087;SDS011;56190;43.562;5.036;2023-03-29T00:17:35;8.98;;;3.22;;
69087;SDS011;56190;43.562;5.036;2023-03-29T00:20:01;8.35;;;3.25;;
69087;SDS011;56190;43.562;5.036;2023-03-29T00:22:27;9.43;;;3.50;;
69087;SDS011;56190;43.562;5.036;2023-03-29T00:24:52;6.70;;;2.72;;
69087;SDS011;56190;43.562;5.036;2023-03-29T00:27:18;5.93;;;2.78;;
69087;SDS011;56190;43.562;5.036;2023-03-29T00:29:43;6.55;;;2.63;;
69087;SDS011;56190;43.562;5.036;2023-03-29T00:32:08;8.27;;;3.03;;
69087;SDS011;56190;43.562;5.036;2023-03-29T00:34:34;6.95;;;2.72;;
69087;SDS011;56190;43.562;5.036;2023-03-29T00:37:01;5.38;;;2.30;;
69087;SDS011;56190;43.562;5.036;2023-03-29T00:39:28;6.47;;;2.40;;
69087;SDS011;56190;43.562;5.036;2023-03-29T00:41:54;6.35;;;2.60;;
69087;SDS011;56190;43.562;5.036;2023-03-29T00:47:03;6.95;;;2.25;;
69087;SDS011;56190;43.562;5.036;2023-03-29T00:49:29;6.38;;;2.45;;
69087;SDS011;56190;43.562;5.036;2023-03-29T00:51:54;9.10;;;2.75;;
69087;SDS011;56190;43.562;5.036;2023-03-29T00:54:19;6.50;;;2.45;;
69087;SDS011;56190;43.562;5.036;2023-03-29T00:56:45;8.38;;;2.88;;
69087;SDS011;56190;43.562;5.036;2023-03-29T00:59:21;7.90;;;2.60;;
69087;SDS011;56190;43.562;5.036;2023-03-29T01:01:56;6.43;;;2.63;;
69087;SDS011;56190;43.562;5.036;2023-03-29T01:06:58;9.63;;;2.88;;
69087;SDS011;56190;43.562;5.036;2023-03-29T01:09:25;6.85;;;3.25;;
69087;SDS011;56190;43.562;5.036;2023-03-29T01:11:54;6.95;;;3.08;;
69087;SDS011;56190;43.562;5.036;2023-03-29T01:16:57;8.75;;;2.55;;
69087;SDS011;56190;43.562;5.036;2023-03-29T01:19:24;7.15;;;2.55;;
69087;SDS011;56190;43.562;5.036;2023-03-29T01:22:00;5.55;;;2.40;;
69087;SDS011;56190;43.562;5.036;2023-03-29T01:27:45;8.27;;;3.22;;
69087;SDS011;56190;43.562;5.036;2023-03-29T01:29:54;7.43;;;3.13;;
69087;SDS011;56190;43.562;5.036;2023-03-29T01:32:25;5.53;;;2.67;;
69087;SDS011;56190;43.562;5.036;2023-03-29T01:34:58;7.95;;;2.92;;
69087;SDS011;56190;43.562;5.036;2023-03-29T01:37:28;6.88;;;3.08;;
69087;SDS011;56190;43.562;5.036;2023-03-29T01:39:56;8.48;;;2.85;;
69087;SDS011;56190;43.562;5.036;2023-03-29T01:52:34;6.63;;;2.92;;
69087;SDS011;56190;43.562;5.036;2023-03-29T01:55:21;6.55;;;2.53;;
69087;SDS011;56190;43.562;5.036;2023-03-29T01:57:47;6.90;;;2.70;;
69087;SDS011;56190;43.562;5.036;2023-03-29T02:00:15;6.30;;;2.95;;
69087;SDS011;56190;43.562;5.036;2023-03-29T02:02:43;5.63;;;2.70;;
69087;SDS011;56190;43.562;5.036;2023-03-29T02:05:10;8.40;;;3.22;;
69087;SDS011;56190;43.562;5.036;2023-03-29T02:07:37;9.35;;;2.88;;
69087;SDS011;56190;43.562;5.036;2023-03-29T02:10:03;8.07;;;2.63;;
69087;SDS011;56190;43.562;5.036;2023-03-29T02:12:29;6.45;;;3.00;;
69087;SDS011;56190;43.562;5.036;2023-03-29T02:14:56;10.20;;;3.10;;
69087;SDS011;56190;43.562;5.036;2023-03-29T02:17:22;7.82;;;3.20;;
69087;SDS011;56190;43.562;5.036;2023-03-29T02:19:56;6.50;;;2.67;;
69087;SDS011;56190;43.562;5.036;2023-03-29T02:22:25;7.65;;;2.83;;
69087;SDS011;56190;43.562;5.036;2023-03-29T02:24:52;6.05;;;3.13;;
69087;SDS011;56190;43.562;5.036;2023-03-29T02:27:18;7.43;;;2.80;;
69087;SDS011;56190;43.562;5.036;2023-03-29T02:29:43;7.97;;;3.50;;
69087;SDS011;56190;43.562;5.036;2023-03-29T02:34:40;6.75;;;3.22;;
69087;SDS011;56190;43.562;5.036;2023-03-29T02:37:12;8.05;;;3.53;;
69087;SDS011;56190;43.562;5.036;2023-03-29T02:39:39;8.13;;;3.45;;
69087;SDS011;56190;43.562;5.036;2023-03-29T02:42:06;12.02;;;4.05;;
69087;SDS011;56190;43.562;5.036;2023-03-29T02:44:32;7.38;;;3.72;;
69087;SDS011;56190;43.562;5.036;2023-03-29T02:47:00;8.70;;;3.60;;
69087;SDS011;56190;43.562;5.036;2023-03-29T02:49:27;8.98;;;3.40;;
69087;SDS011;56190;43.562;5.036;2023-03-29T02:51:52;6.90;;;3.20;;
69087;SDS011;56190;43.562;5.036;2023-03-29T02:54:20;5.93;;;3.38;;
69087;SDS011;56190;43.562;5.036;2023-03-29T02:56:48;7.00;;;3.30;;
69087;SDS011;56190;43.562;5.036;2023-03-29T02:59:14;7.03;;;3.38;;
69087;SDS011;56190;43.562;5.036;2023-03-29T03:01:40;8.52;;;3.85;;
69087;SDS011;56190;43.562;5.036;2023-03-29T03:04:07;7.95;;;3.42;;
69087;SDS011;56190;43.562;5.036;2023-03-29T03:06:34;7.05;;;3.22;;
69087;SDS011;56190;43.562;5.036;2023-03-29T03:09:00;6.47;;;3.67;;
69087;SDS011;56190;43.562;5.036;2023-03-29T03:11:26;8.18;;;3.40;;
69087;SDS011;56190;43.562;5.036;2023-03-29T03:13:51;7.95;;;3.40;;
69087;SDS011;56190;43.562;5.036;2023-03-29T03:16:16;8.40;;;3.35;;
69087;SDS011;56190;43.562;5.036;2023-03-29T03:18:42;7.10;;;3.00;;
69087;SDS011;56190;43.562;5.036;2023-03-29T03:21:08;6.90;;;3.53;;
69087;SDS011;56190;43.562;5.036;2023-03-29T03:23:33;7.40;;;3.47;;
69087;SDS011;56190;43.562;5.036;2023-03-29T03:25:59;8.82;;;3.70;;
69087;SDS011;56190;43.562;5.036;2023-03-29T03:28:24;5.90;;;2.88;;
69087;SDS011;56190;43.562;5.036;2023-03-29T03:30:51;7.60;;;2.97;;
69087;SDS011;56190;43.562;5.036;2023-03-29T03:33:16;6.32;;;2.85;;
69087;SDS011;56190;43.562;5.036;2023-03-29T03:35:42;5.75;;;3.00;;
69087;SDS011;56190;43.562;5.036;2023-03-29T03:38:10;9.25;;;3.30;;
69087;SDS011;56190;43.562;5.036;2023-03-29T03:40:35;4.93;;;2.90;;
69087;SDS011;56190;43.562;5.036;2023-03-29T03:43:00;5.57;;;3.00;;
69087;SDS011;56190;43.562;5.036;2023-03-29T03:45:25;6.15;;;2.72;;
69087;SDS011;56190;43.562;5.036;2023-03-29T03:47:51;9.90;;;3.30;;
69087;SDS011;56190;43.562;5.036;2023-03-29T03:50:16;6.28;;;3.03;;
69087;SDS011;56190;43.562;5.036;2023-03-29T03:52:42;6.53;;;3.10;;
69087;SDS011;56190;43.562;5.036;2023-03-29T03:55:07;6.50;;;3.08;;
69087;SDS011;56190;43.562;5.036;2023-03-29T03:57:33;5.90;;;3.03;;
69087;SDS011;56190;43.562;5.036;2023-03-29T04:00:01;5.53;;;2.95;;
69087;SDS011;56190;43.562;5.036;2023-03-29T04:02:37;9.95;;;3.03;;
69087;SDS011;56190;43.562;5.036;2023-03-29T04:05:03;6.22;;;2.55;;
69087;SDS011;56190;43.562;5.036;2023-03-29T04:07:28;6.88;;;2.80;;
69087;SDS011;56190;43.562;5.036;2023-03-29T04:09:53;7.50;;;3.20;;
69087;SDS011;56190;43.562;5.036;2023-03-29T04:12:19;6.28;;;2.85;;
69087;SDS011;56190;43.562;5.036;2023-03-29T04:14:44;5.55;;;2.97;;
69087;SDS011;56190;43.562;5.036;2023-03-29T04:17:11;4.85;;;2.75;;
69087;SDS011;56190;43.562;5.036;2023-03-29T04:19:36;4.60;;;2.88;;
69087;SDS011;56190;43.562;5.036;2023-03-29T04:22:01;8.80;;;2.92;;
69087;SDS011;56190;43.562;5.036;2023-03-29T04:24:27;5.82;;;2.90;;
69087;SDS011;56190;43.562;5.036;2023-03-29T04:26:52;5.72;;;2.85;;
69087;SDS011;56190;43.562;5.036;2023-03-29T04:29:17;4.50;;;2.65;;
69087;SDS011;56190;43.562;5.036;2023-03-29T04:31:42;5.35;;;2.58;;
69087;SDS011;56190;43.562;5.036;2023-03-29T04:34:08;4.85;;;2.58;;
69087;SDS011;56190;43.562;5.036;2023-03-29T04:36:33;4.70;;;2.55;;
69087;SDS011;56190;43.562;5.036;2023-03-29T04:38:58;6.80;;;2.80;;
69087;SDS011;56190;43.562;5.036;2023-03-29T04:41:25;8.65;;;2.95;;
69087;SDS011;56190;43.562;5.036;2023-03-29T04:43:51;4.40;;;2.70;;
69087;SDS011;56190;43.562;5.036;2023-03-29T04:46:17;7.00;;;2.80;;
69087;SDS011;56190;43.562;5.036;2023-03-29T04:48:43;5.65;;;3.40;;
69087;SDS011;56190;43.562;5.036;2023-03-29T04:51:08;5.97;;;2.70;;
69087;SDS011;56190;43.562;5.036;2023-03-29T04:53:33;5.70;;;2.83;;
69087;SDS011;56190;43.562;5.036;2023-03-29T04:55:58;5.03;;;2.65;;
69087;SDS011;56190;43.562;5.036;2023-03-29T04:58:24;6.53;;;2.53;;
69087;SDS011;56190;43.562;5.036;2023-03-29T05:00:50;5.70;;;2.78;;
69087;SDS011;56190;43.562;5.036;2023-03-29T05:03:15;7.35;;;3.30;;
69087;SDS011;56190;43.562;5.036;2023-03-29T05:05:41;8.07;;;3.20;;
69087;SDS011;56190;43.562;5.036;2023-03-29T05:08:06;8.63;;;3.35;;
69087;SDS011;56190;43.562;5.036;2023-03-29T05:10:33;7.78;;;3.55;;
69087;SDS011;56190;43.562;5.036;2023-03-29T05:12:58;5.70;;;3.08;;
69087;SDS011;56190;43.562;5.036;2023-03-29T05:15:24;7.35;;;3.00;;
69087;SDS011;56190;43.562;5.036;2023-03-29T05:17:49;6.03;;;3.20;;
69087;SDS011;56190;43.562;5.036;2023-03-29T05:20:15;8.70;;;3.35;;
69087;SDS011;56190;43.562;5.036;2023-03-29T05:22:41;8.98;;;3.90;;
69087;SDS011;56190;43.562;5.036;2023-03-29T05:25:07;5.47;;;3.35;;
69087;SDS011;56190;43.562;5.036;2023-03-29T05:27:34;6.20;;;2.88;;
69087;SDS011;56190;43.562;5.036;2023-03-29T05:30:00;8.23;;;3.58;;
69087;SDS011;56190;43.562;5.036;2023-03-29T05:32:26;6.90;;;3.13;;
69087;SDS011;56190;43.562;5.036;2023-03-29T05:34:51;5.97;;;3.50;;
69087;SDS011;56190;43.562;5.036;2023-03-29T05:37:16;6.80;;;3.17;;
69087;SDS011;56190;43.562;5.036;2023-03-29T05:39:42;7.13;;;3.47;;
69087;SDS011;56190;43.562;5.036;2023-03-29T05:42:08;8.45;;;3.50;;
69087;SDS011;56190;43.562;5.036;2023-03-29T05:44:36;9.73;;;3.30;;
69087;SDS011;56190;43.562;5.036;2023-03-29T05:47:01;6.85;;;3.00;;
69087;SDS011;56190;43.562;5.036;2023-03-29T05:49:27;8.07;;;3.22;;
69087;SDS011;56190;43.562;5.036;2023-03-29T05:51:52;8.07;;;3.33;;
69087;SDS011;56190;43.562;5.036;2023-03-29T05:54:20;7.68;;;3.28;;
69087;SDS011;56190;43.562;5.036;2023-03-29T05:56:46;8.10;;;3.80;;
69087;SDS011;56190;43.562;5.036;2023-03-29T05:59:11;7.28;;;3.45;;
69087;SDS011;56190;43.562;5.036;2023-03-29T06:01:37;6.70;;;3.25;;
69087;SDS011;56190;43.562;5.036;2023-03-29T06:04:04;7.05;;;3.22;;
69087;SDS011;56190;43.562;5.036;2023-03-29T06:06:30;7.22;;;3.15;;
69087;SDS011;56190;43.562;5.036;2023-03-29T06:08:55;8.25;;;3.20;;
69087;SDS011;56190;43.562;5.036;2023-03-29T06:11:20;6.32;;;3.63;;
69087;SDS011;56190;43.562;5.036;2023-03-29T06:13:48;6.82;;;3.45;;
69087;SDS011;56190;43.562;5.036;2023-03-29T06:16:13;8.68;;;3.03;;
69087;SDS011;56190;43.562;5.036;2023-03-29T06:18:38;6.80;;;2.97;;
69087;SDS011;56190;43.562;5.036;2023-03-29T06:21:05;8.40;;;3.45;;
69087;SDS011;56190;43.562;5.036;2023-03-29T06:23:31;8.27;;;2.97;;
69087;SDS011;56190;43.562;5.036;2023-03-29T06:25:57;7.78;;;3.00;;
69087;SDS011;56190;43.562;5.036;2023-03-29T06:28:24;8.70;;;3.30;;
69087;SDS011;56190;43.562;5.036;2023-03-29T06:30:50;7.75;;;3.45;;
69087;SDS011;56190;43.562;5.036;2023-03-29T06:33:15;8.05;;;3.60;;
69087;SDS011;56190;43.562;5.036;2023-03-29T06:35:41;7.80;;;3.78;;
69087;SDS011;56190;43.562;5.036;2023-03-29T06:38:07;7.50;;;3.63;;
69087;SDS011;56190;43.562;5.036;2023-03-29T06:40:33;9.82;;;3.63;;
69087;SDS011;56190;43.562;5.036;2023-03-29T06:42:58;6.00;;;3.63;;
69087;SDS011;56190;43.562;5.036;2023-03-29T06:45:24;6.03;;;3.28;;
69087;SDS011;56190;43.562;5.036;2023-03-29T06:47:50;6.90;;;3.17;;
69087;SDS011;56190;43.562;5.036;2023-03-29T06:50:16;7.07;;;3.22;;
69087;SDS011;56190;43.562;5.036;2023-03-29T06:52:41;9.27;;;3.78;;
69087;SDS011;56190;43.562;5.036;2023-03-29T06:55:07;6.95;;;3.10;;
69087;SDS011;56190;43.562;5.036;2023-03-29T06:57:32;8.35;;;3.03;;
69087;SDS011;56190;43.562;5.036;2023-03-29T06:59:58;9.38;;;3.60;;
69087;SDS011;56190;43.562;5.036;2023-03-29T07:02:23;8.45;;;3.00;;
69087;SDS011;56190;43.562;5.036;2023-03-29T07:04:48;8.40;;;3.13;;
69087;SDS011;56190;43.562;5.036;2023-03-29T07:07:13;9.50;;;3.58;;
69087;SDS011;56190;43.562;5.036;2023-03-29T07:09:45;8.88;;;3.92;;
69087;SDS011;56190;43.562;5.036;2023-03-29T07:12:10;8.07;;;3.65;;
69087;SDS011;56190;43.562;5.036;2023-03-29T07:14:35;8.13;;;3.83;;
69087;SDS011;56190;43.562;5.036;2023-03-29T07:17:01;12.45;;;4.68;;
69087;SDS011;56190;43.562;5.036;2023-03-29T07:19:26;8.63;;;5.70;;
69087;SDS011;56190;43.562;5.036;2023-03-29T07:21:54;9.73;;;5.22;;
69087;SDS011;56190;43.562;5.036;2023-03-29T07:24:19;7.13;;;3.95;;
69087;SDS011;56190;43.562;5.036;2023-03-29T07:26:45;7.35;;;3.80;;
69087;SDS011;56190;43.562;5.036;2023-03-29T07:29:11;6.63;;;3.53;;
69087;SDS011;56190;43.562;5.036;2023-03-29T07:31:36;8.30;;;3.72;;
69087;SDS011;56190;43.562;5.036;2023-03-29T07:34:04;8.77;;;3.20;;
69087;SDS011;56190;43.562;5.036;2023-03-29T07:36:30;7.50;;;3.22;;
69087;SDS011;56190;43.562;5.036;2023-03-29T07:38:58;6.13;;;3.53;;
69087;SDS011;56190;43.562;5.036;2023-03-29T07:41:25;7.57;;;3.47;;
69087;SDS011;56190;43.562;5.036;2023-03-29T07:43:51;7.45;;;2.83;;
69087;SDS011;56190;43.562;5.036;2023-03-29T07:46:16;8.60;;;3.40;;
69087;SDS011;56190;43.562;5.036;2023-03-29T07:48:41;8.35;;;3.00;;
69087;SDS011;56190;43.562;5.036;2023-03-29T07:51:06;12.40;;;3.00;;
69087;SDS011;56190;43.562;5.036;2023-03-29T07:53:32;5.82;;;3.10;;
69087;SDS011;56190;43.562;5.036;2023-03-29T07:55:57;7.20;;;2.90;;
69087;SDS011;56190;43.562;5.036;2023-03-29T07:58:22;8.93;;;3.00;;
69087;SDS011;56190;43.562;5.036;2023-03-29T08:00:48;5.40;;;2.72;;
69087;SDS011;56190;43.562;5.036;2023-03-29T08:03:14;9.75;;;3.17;;
69087;SDS011;56190;43.562;5.036;2023-03-29T08:05:40;11.50;;;3.28;;
69087;SDS011;56190;43.562;5.036;2023-03-29T08:08:05;9.95;;;4.10;;
69087;SDS011;56190;43.562;5.036;2023-03-29T08:10:31;9.18;;;3.63;;
69087;SDS011;56190;43.562;5.036;2023-03-29T08:12:58;8.20;;;3.65;;
69087;SDS011;56190;43.562;5.036;2023-03-29T08:15:23;6.78;;;3.47;;
69087;SDS011;56190;43.562;5.036;2023-03-29T08:17:48;12.10;;;6.63;;
69087;SDS011;56190;43.562;5.036;2023-03-29T08:20:14;12.98;;;8.13;;
69087;SDS011;56190;43.562;5.036;2023-03-29T08:22:40;12.13;;;7.13;;
69087;SDS011;56190;43.562;5.036;2023-03-29T08:25:05;13.15;;;7.50;;
69087;SDS011;56190;43.562;5.036;2023-03-29T08:27:31;13.63;;;7.35;;
69087;SDS011;56190;43.562;5.036;2023-03-29T08:29:57;12.20;;;6.78;;
69087;SDS011;56190;43.562;5.036;2023-03-29T08:32:22;8.73;;;6.13;;
69087;SDS011;56190;43.562;5.036;2023-03-29T08:34:47;10.45;;;5.20;;
69087;SDS011;56190;43.562;5.036;2023-03-29T08:37:13;11.93;;;5.30;;
69087;SDS011;56190;43.562;5.036;2023-03-29T08:39:38;10.25;;;4.50;;
69087;SDS011;56190;43.562;5.036;2023-03-29T08:49:50;10.43;;;3.95;;
69087;SDS011;56190;43.562;5.036;2023-03-29T08:52:21;8.10;;;3.53;;
69087;SDS011;56190;43.562;5.036;2023-03-29T08:54:48;9.88;;;3.05;;
69087;SDS011;56190;43.562;5.036;2023-03-29T08:57:24;9.80;;;3.53;;
69087;SDS011;56190;43.562;5.036;2023-03-29T08:59:52;10.98;;;3.80;;
69087;SDS011;56190;43.562;5.036;2023-03-29T09:02:21;12.55;;;4.15;;
69087;SDS011;56190;43.562;5.036;2023-03-29T09:04:47;12.98;;;4.30;;
69087;SDS011;56190;43.562;5.036;2023-03-29T09:07:13;9.43;;;3.70;;
69087;SDS011;56190;43.562;5.036;2023-03-29T09:09:38;8.57;;;4.15;;
69087;SDS011;56190;43.562;5.036;2023-03-29T09:17:02;11.40;;;4.47;;
69087;SDS011;56190;43.562;5.036;2023-03-29T09:24:38;14.82;;;4.20;;
69087;SDS011;56190;43.562;5.036;2023-03-29T09:27:08;11.80;;;4.20;;
69087;SDS011;56190;43.562;5.036;2023-03-29T09:29:49;13.43;;;4.65;;
69087;SDS011;56190;43.562;5.036;2023-03-29T09:32:18;10.60;;;4.72;;
69087;SDS011;56190;43.562;5.036;2023-03-29T09:34:44;17.08;;;5.00;;
69087;SDS011;56190;43.562;5.036;2023-03-29T09:37:14;13.60;;;5.05;;
69087;SDS011;56190;43.562;5.036;2023-03-29T09:39:45;14.70;;;5.93;;
69087;SDS011;56190;43.562;5.036;2023-03-29T09:42:10;15.73;;;6.00;;
69087;SDS011;56190;43.562;5.036;2023-03-29T09:44:43;13.32;;;5.90;;
69087;SDS011;56190;43.562;5.036;2023-03-29T09:47:14;12.73;;;5.85;;
69087;SDS011;56190;43.562;5.036;2023-03-29T09:49:43;13.97;;;6.00;;
69087;SDS011;56190;43.562;5.036;2023-03-29T09:52:11;14.05;;;5.82;;
69087;SDS011;56190;43.562;5.036;2023-03-29T09:54:38;14.15;;;5.63;;
69087;SDS011;56190;43.562;5.036;2023-03-29T09:57:03;15.70;;;4.97;;
69087;SDS011;56190;43.562;5.036;2023-03-29T09:59:29;14.13;;;5.15;;
69087;SDS011;56190;43.562;5.036;2023-03-29T10:02:03;14.13;;;5.00;;
69087;SDS011;56190;43.562;5.036;2023-03-29T10:04:29;14.77;;;5.47;;
69087;SDS011;56190;43.562;5.036;2023-03-29T10:06:54;15.88;;;5.55;;
69087;SDS011;56190;43.562;5.036;2023-03-29T10:09:20;14.40;;;4.63;;
69087;SDS011;56190;43.562;5.036;2023-03-29T10:11:48;14.00;;;4.95;;
69087;SDS011;56190;43.562;5.036;2023-03-29T10:14:18;14.90;;;5.07;;
69087;SDS011;56190;43.562;5.036;2023-03-29T10:16:44;11.93;;;4.68;;
69087;SDS011;56190;43.562;5.036;2023-03-29T10:21:48;13.85;;;4.35;;
69087;SDS011;56190;43.562;5.036;2023-03-29T10:24:17;12.85;;;5.15;;
69087;SDS011;56190;43.562;5.036;2023-03-29T10:26:42;14.70;;;4.60;;
69087;SDS011;56190;43.562;5.036;2023-03-29T10:29:07;16.30;;;5.45;;
69087;SDS011;56190;43.562;5.036;2023-03-29T10:31:34;16.85;;;6.05;;
69087;SDS011;56190;43.562;5.036;2023-03-29T10:34:05;16.40;;;5.72;;
69087;SDS011;56190;43.562;5.036;2023-03-29T10:36:31;19.25;;;6.28;;
69087;SDS011;56190;43.562;5.036;2023-03-29T10:38:57;16.67;;;6.13;;
69087;SDS011;56190;43.562;5.036;2023-03-29T10:41:23;12.15;;;5.30;;
69087;SDS011;56190;43.562;5.036;2023-03-29T10:43:50;17.08;;;5.40;;
69087;SDS011;56190;43.562;5.036;2023-03-29T10:46:20;17.45;;;5.85;;
69087;SDS011;56190;43.562;5.036;2023-03-29T10:49:02;13.68;;;5.57;;
69087;SDS011;56190;43.562;5.036;2023-03-29T10:51:29;15.45;;;6.45;;
69087;SDS011;56190;43.562;5.036;2023-03-29T10:53:58;16.92;;;5.80;;
69087;SDS011;56190;43.562;5.036;2023-03-29T11:14:13;18.27;;;4.78;;
69087;SDS011;56190;43.562;5.036;2023-03-29T11:19:12;16.83;;;5.25;;
69087;SDS011;56190;43.562;5.036;2023-03-29T11:29:51;16.25;;;4.82;;
69087;SDS011;56190;43.562;5.036;2023-03-29T11:42:55;19.70;;;5.00;;
69087;SDS011;56190;43.562;5.036;2023-03-29T11:45:33;15.50;;;5.20;;
69087;SDS011;56190;43.562;5.036;2023-03-29T11:48:00;18.20;;;4.70;;
69087;SDS011;56190;43.562;5.036;2023-03-29T11:50:30;14.25;;;4.53;;
69087;SDS011;56190;43.562;5.036;2023-03-29T11:53:20;18.98;;;5.32;;
69087;SDS011;56190;43.562;5.036;2023-03-29T11:55:42;18.70;;;4.75;;
69087;SDS011;56190;43.562;5.036;2023-03-29T12:00:44;17.15;;;4.45;;
69087;SDS011;56190;43.562;5.036;2023-03-29T12:05:49;18.23;;;4.38;;
69087;SDS011;56190;43.562;5.036;2023-03-29T12:08:24;14.80;;;3.88;;
69087;SDS011;56190;43.562;5.036;2023-03-29T12:10:50;13.48;;;3.88;;
69087;SDS011;56190;43.562;5.036;2023-03-29T12:13:21;17.02;;;4.35;;
69087;SDS011;56190;43.562;5.036;2023-03-29T12:15:52;13.80;;;3.88;;
69087;SDS011;56190;43.562;5.036;2023-03-29T12:20:49;13.13;;;4.32;;
69087;SDS011;56190;43.562;5.036;2023-03-29T12:23:16;13.57;;;3.90;;
69087;SDS011;56190;43.562;5.036;2023-03-29T12:25:45;14.90;;;4.40;;
69087;SDS011;56190;43.562;5.036;2023-03-29T12:30:45;17.60;;;4.53;;
69087;SDS011;56190;43.562;5.036;2023-03-29T12:40:47;19.52;;;4.80;;
69087;SDS011;56190;43.562;5.036;2023-03-29T12:43:18;18.75;;;4.60;;
69087;SDS011;56190;43.562;5.036;2023-03-29T12:45:47;18.50;;;5.38;;
69087;SDS011;56190;43.562;5.036;2023-03-29T12:48:13;20.27;;;4.63;;
69087;SDS011;56190;43.562;5.036;2023-03-29T12:50:45;21.35;;;6.55;;
69087;SDS011;56190;43.562;5.036;2023-03-29T13:01:20;19.48;;;4.53;;
69087;SDS011;56190;43.562;5.036;2023-03-29T13:03:50;20.42;;;4.90;;
69087;SDS011;56190;43.562;5.036;2023-03-29T13:09:21;15.25;;;5.18;;
69087;SDS011;56190;43.562;5.036;2023-03-29T13:14:18;22.75;;;4.97;;
69087;SDS011;56190;43.562;5.036;2023-03-29T13:16:44;19.13;;;4.80;;
69087;SDS011;56190;43.562;5.036;2023-03-29T13:26:54;18.67;;;7.93;;
69087;SDS011;56190;43.562;5.036;2023-03-29T13:31:57;20.95;;;6.07;;
69087;SDS011;56190;43.562;5.036;2023-03-29T13:39:30;16.05;;;4.40;;
69087;SDS011;56190;43.562;5.036;2023-03-29T13:42:06;22.90;;;4.82;;
69087;SDS011;56190;43.562;5.036;2023-03-29T13:44:38;19.58;;;4.38;;
69087;SDS011;56190;43.562;5.036;2023-03-29T13:47:12;16.95;;;4.72;;
69087;SDS011;56190;43.562;5.036;2023-03-29T13:49:38;18.10;;;4.65;;
69087;SDS011;56190;43.562;5.036;2023-03-29T13:52:14;17.90;;;4.57;;
69087;SDS011;56190;43.562;5.036;2023-03-29T13:57:29;14.15;;;3.88;;
69087;SDS011;56190;43.562;5.036;2023-03-29T14:00:00;15.63;;;4.20;;
69087;SDS011;56190;43.562;5.036;2023-03-29T14:02:32;18.55;;;4.28;;
69087;SDS011;56190;43.562;5.036;2023-03-29T14:05:01;18.42;;;4.30;;
69087;SDS011;56190;43.562;5.036;2023-03-29T14:07:28;14.43;;;4.10;;
69087;SDS011;56190;43.562;5.036;2023-03-29T14:09:56;17.60;;;4.30;;
69087;SDS011;56190;43.562;5.036;2023-03-29T14:12:22;14.55;;;3.70;;
69087;SDS011;56190;43.562;5.036;2023-03-29T14:14:48;14.48;;;4.03;;
69087;SDS011;56190;43.562;5.036;2023-03-29T14:17:18;22.33;;;4.85;;
69087;SDS011;56190;43.562;5.036;2023-03-29T14:19:45;12.77;;;3.83;;
69087;SDS011;56190;43.562;5.036;2023-03-29T14:22:14;17.08;;;4.32;;
69087;SDS011;56190;43.562;5.036;2023-03-29T14:24:44;16.27;;;4.35;;
69087;SDS011;56190;43.562;5.036;2023-03-29T14:27:12;14.93;;;3.88;;
69087;SDS011;56190;43.562;5.036;2023-03-29T14:29:37;14.98;;;3.95;;
69087;SDS011;56190;43.562;5.036;2023-03-29T14:32:09;12.52;;;3.95;;
69087;SDS011;56190;43.562;5.036;2023-03-29T14:34:35;14.82;;;3.72;;
69087;SDS011;56190;43.562;5.036;2023-03-29T14:37:00;15.23;;;4.07;;
69087;SDS011;56190;43.562;5.036;2023-03-29T14:39:25;15.00;;;3.83;;
69087;SDS011;56190;43.562;5.036;2023-03-29T14:41:51;12.25;;;3.97;;
69087;SDS011;56190;43.562;5.036;2023-03-29T14:44:17;14.13;;;4.78;;
69087;SDS011;56190;43.562;5.036;2023-03-29T14:46:44;13.43;;;4.72;;
69087;SDS011;56190;43.562;5.036;2023-03-29T14:49:13;12.80;;;3.97;;
69087;SDS011;56190;43.562;5.036;2023-03-29T14:51:39;14.95;;;4.90;;
69087;SDS011;56190;43.562;5.036;2023-03-29T14:54:05;14.43;;;4.45;;
69087;SDS011;56190;43.562;5.036;2023-03-29T14:56:30;13.82;;;4.15;;
69087;SDS011;56190;43.562;5.036;2023-03-29T14:58:56;11.07;;;3.78;;
69087;SDS011;56190;43.562;5.036;2023-03-29T15:01:23;11.13;;;3.38;;
69087;SDS011;56190;43.562;5.036;2023-03-29T15:03:50;12.95;;;3.65;;
69087;SDS011;56190;43.562;5.036;2023-03-29T15:06:16;11.73;;;3.50;;
69087;SDS011;56190;43.562;5.036;2023-03-29T15:08:42;11.23;;;3.20;;
69087;SDS011;56190;43.562;5.036;2023-03-29T15:11:17;10.13;;;3.20;;
69087;SDS011;56190;43.562;5.036;2023-03-29T15:13:43;10.88;;;3.47;;
69087;SDS011;56190;43.562;5.036;2023-03-29T15:16:11;13.60;;;3.75;;
69087;SDS011;56190;43.562;5.036;2023-03-29T15:18:37;9.90;;;3.30;;
69087;SDS011;56190;43.562;5.036;2023-03-29T15:21:04;11.32;;;3.28;;
69087;SDS011;56190;43.562;5.036;2023-03-29T15:26:18;11.13;;;3.90;;
69087;SDS011;56190;43.562;5.036;2023-03-29T15:28:51;10.25;;;3.45;;
69087;SDS011;56190;43.562;5.036;2023-03-29T15:31:25;12.18;;;3.40;;
69087;SDS011;56190;43.562;5.036;2023-03-29T15:34:00;9.07;;;3.60;;
69087;SDS011;56190;43.562;5.036;2023-03-29T15:36:26;14.05;;;4.43;;
69087;SDS011;56190;43.562;5.036;2023-03-29T15:38:51;13.18;;;4.53;;
69087;SDS011;56190;43.562;5.036;2023-03-29T15:41:16;12.60;;;3.90;;
69087;SDS011;56190;43.562;5.036;2023-03-29T15:43:41;14.80;;;4.40;;
69087;SDS011;56190;43.562;5.036;2023-03-29T15:46:07;13.50;;;4.15;;
69087;SDS011;56190;43.562;5.036;2023-03-29T15:48:34;11.73;;;4.10;;
69087;SDS011;56190;43.562;5.036;2023-03-29T15:50:59;13.32;;;4.95;;
69087;SDS011;56190;43.562;5.036;2023-03-29T15:53:26;12.98;;;4.30;;
69087;SDS011;56190;43.562;5.036;2023-03-29T15:55:54;16.80;;;4.63;;
69087;SDS011;56190;43.562;5.036;2023-03-29T15:58:26;12.23;;;4.22;;
69087;SDS011;56190;43.562;5.036;2023-03-29T16:01:04;14.55;;;4.65;;
69087;SDS011;56190;43.562;5.036;2023-03-29T16:03:35;13.23;;;5.05;;
69087;SDS011;56190;43.562;5.036;2023-03-29T16:06:00;15.98;;;5.43;;
69087;SDS011;56190;43.562;5.036;2023-03-29T16:08:25;14.70;;;5.20;;
69087;SDS011;56190;43.562;5.036;2023-03-29T16:10:51;15.57;;;7.20;;
69087;SDS011;56190;43.562;5.036;2023-03-29T16:13:16;16.58;;;4.68;;
69087;SDS011;56190;43.562;5.036;2023-03-29T16:15:41;15.40;;;4.50;;
69087;SDS011;56190;43.562;5.036;2023-03-29T16:18:07;13.80;;;4.75;;
69087;SDS011;56190;43.562;5.036;2023-03-29T16:20:32;13.23;;;4.13;;
69087;SDS011;56190;43.562;5.036;2023-03-29T16:22:58;18.02;;;5.63;;
69087;SDS011;56190;43.562;5.036;2023-03-29T16:25:23;18.38;;;5.32;;
69087;SDS011;56190;43.562;5.036;2023-03-29T16:27:49;20.08;;;7.75;;
69087;SDS011;56190;43.562;5.036;2023-03-29T16:30:14;13.85;;;4.35;;
69087;SDS011;56190;43.562;5.036;2023-03-29T16:32:40;13.98;;;5.05;;
69087;SDS011;56190;43.562;5.036;2023-03-29T16:35:10;15.30;;;4.40;;
69087;SDS011;56190;43.562;5.036;2023-03-29T16:37:36;19.77;;;5.30;;
69087;SDS011;56190;43.562;5.036;2023-03-29T16:40:02;15.73;;;4.70;;
69087;SDS011;56190;43.562;5.036;2023-03-29T16:42:31;18.17;;;4.68;;
69087;SDS011;56190;43.562;5.036;2023-03-29T16:44:57;20.98;;;7.30;;
69087;SDS011;56190;43.562;5.036;2023-03-29T16:47:25;17.70;;;5.18;;
69087;SDS011;56190;43.562;5.036;2023-03-29T16:49:51;19.10;;;5.85;;
69087;SDS011;56190;43.562;5.036;2023-03-29T16:52:16;17.75;;;5.68;;
69087;SDS011;56190;43.562;5.036;2023-03-29T16:54:41;15.40;;;4.85;;